sensor_id;sensor_type;location;lat;lon;timestamp;pressure;altitude;pressure_sealevel;temperature;humidity
12785;BME280;6456;42.680;23.260;2022-10-16T00:00:39;95301.75;;;10.44;100.00
12785;BME280;6456;42.680;23.260;2022-10-16T00:03:09;95302.13;;;10.41;100.00
12785;BME280;6456;42.680;23.260;2022-10-16T00:05:41;95308.56;;;10.32;100.00
12785;BME280;6456;42.680;23.260;2022-10-16T00:08:10;95296.56;;;10.22;100.00
12785;BME280;6456;42.680;23.260;2022-10-16T00:10:38;95244.09;;;9.80;100.00
12785;BME280;6456;42.680;23.260;2022-10-16T00:13:07;95299.53;;;10.13;100.00
12785;BME280;6456;42.680;23.260;2022-10-16T00:15:34;95259.34;;;9.91;100.00
12785;BME280;6456;42.680;23.260;2022-10-16T00:18:03;95322.31;;;10.27;100.00
12785;BME280;6456;42.680;23.260;2022-10-16T00:20:33;95284.09;;;10.03;100.00
12785;BME280;6456;42.680;23.260;2022-10-16T00:23:02;95236.53;;;9.64;100.00
12785;BME280;6456;42.680;23.260;2022-10-16T00:25:29;95209.91;;;9.46;100.00
12785;BME280;6456;42.680;23.260;2022-10-16T00:27:58;95273.84;;;9.87;100.00
12785;BME280;6456;42.680;23.260;2022-10-16T00:30:26;95300.00;;;9.95;100.00
12785;BME280;6456;42.680;23.260;2022-10-16T00:32:54;95216.75;;;9.47;100.00
12785;BME280;6456;42.680;23.260;2022-10-16T00:35:21;95202.69;;;9.27;100.00
12785;BME280;6456;42.680;23.260;2022-10-16T00:37:48;95248.97;;;9.55;100.00
12785;BME280;6456;42.680;23.260;2022-10-16T00:40:15;95318.41;;;9.95;100.00
12785;BME280;6456;42.680;23.260;2022-10-16T00:42:42;95330.19;;;9.99;100.00
12785;BME280;6456;42.680;23.260;2022-10-16T00:45:10;95302.16;;;9.85;100.00
12785;BME280;6456;42.680;23.260;2022-10-16T00:47:40;95270.03;;;9.62;100.00
12785;BME280;6456;42.680;23.260;2022-10-16T00:50:09;95248.72;;;9.50;100.00
12785;BME280;6456;42.680;23.260;2022-10-16T00:52:43;95300.34;;;9.86;100.00
12785;BME280;6456;42.680;23.260;2022-10-16T00:55:11;95323.03;;;9.93;100.00
12785;BME280;6456;42.680;23.260;2022-10-16T00:57:38;95326.06;;;9.90;100.00
12785;BME280;6456;42.680;23.260;2022-10-16T01:00:08;95259.84;;;9.52;100.00
12785;BME280;6456;42.680;23.260;2022-10-16T01:02:37;95313.94;;;9.89;100.00
12785;BME280;6456;42.680;23.260;2022-10-16T01:05:05;95246.00;;;9.37;100.00
12785;BME280;6456;42.680;23.260;2022-10-16T01:07:39;95311.56;;;9.73;100.00
12785;BME280;6456;42.680;23.260;2022-10-16T01:10:19;95252.03;;;9.31;100.00
12785;BME280;6456;42.680;23.260;2022-10-16T01:12:55;95285.72;;;9.49;100.00
12785;BME280;6456;42.680;23.260;2022-10-16T01:15:27;95199.53;;;8.89;100.00
12785;BME280;6456;42.680;23.260;2022-10-16T01:18:02;95329.59;;;9.76;100.00
12785;BME280;6456;42.680;23.260;2022-10-16T01:20:35;95307.22;;;9.59;100.00
12785;BME280;6456;42.680;23.260;2022-10-16T01:23:21;95297.50;;;9.59;100.00
12785;BME280;6456;42.680;23.260;2022-10-16T01:26:03;95288.09;;;9.44;100.00
12785;BME280;6456;42.680;23.260;2022-10-16T01:28:39;95308.91;;;9.66;100.00
12785;BME280;6456;42.680;23.260;2022-10-16T01:31:09;95198.09;;;8.86;100.00
12785;BME280;6456;42.680;23.260;2022-10-16T01:33:41;95217.22;;;9.01;100.00
12785;BME280;6456;42.680;23.260;2022-10-16T01:36:12;95321.34;;;9.58;100.00
12785;BME280;6456;42.680;23.260;2022-10-16T01:38:40;95286.53;;;9.28;100.00
12785;BME280;6456;42.680;23.260;2022-10-16T01:41:11;95296.72;;;9.38;100.00
12785;BME280;6456;42.680;23.260;2022-10-16T01:43:45;95278.22;;;9.25;100.00
12785;BME280;6456;42.680;23.260;2022-10-16T01:46:14;95321.22;;;9.45;100.00
12785;BME280;6456;42.680;23.260;2022-10-16T01:48:44;95199.53;;;8.68;100.00
12785;BME280;6456;42.680;23.260;2022-10-16T01:51:13;95315.09;;;9.38;100.00
12785;BME280;6456;42.680;23.260;2022-10-16T01:53:43;95268.91;;;9.01;100.00
12785;BME280;6456;42.680;23.260;2022-10-16T01:56:14;95291.22;;;9.12;100.00
12785;BME280;6456;42.680;23.260;2022-10-16T01:58:46;95231.72;;;8.76;100.00
12785;BME280;6456;42.680;23.260;2022-10-16T02:01:15;95195.97;;;8.54;100.00
12785;BME280;6456;42.680;23.260;2022-10-16T02:03:44;95315.78;;;9.25;100.00
12785;BME280;6456;42.680;23.260;2022-10-16T02:06:12;95230.91;;;8.76;100.00
12785;BME280;6456;42.680;23.260;2022-10-16T02:08:39;95339.00;;;9.43;100.00
12785;BME280;6456;42.680;23.260;2022-10-16T02:11:09;95342.63;;;9.42;100.00
12785;BME280;6456;42.680;23.260;2022-10-16T02:13:39;95321.84;;;9.26;100.00
12785;BME280;6456;42.680;23.260;2022-10-16T02:16:10;95299.84;;;9.06;100.00
12785;BME280;6456;42.680;23.260;2022-10-16T02:18:37;95359.69;;;9.31;100.00
12785;BME280;6456;42.680;23.260;2022-10-16T02:21:13;95338.34;;;9.20;100.00
12785;BME280;6456;42.680;23.260;2022-10-16T02:23:56;95275.31;;;8.77;100.00
12785;BME280;6456;42.680;23.260;2022-10-16T02:26:29;95272.00;;;8.69;100.00
12785;BME280;6456;42.680;23.260;2022-10-16T02:29:01;95273.03;;;8.74;100.00
12785;BME280;6456;42.680;23.260;2022-10-16T02:31:34;95312.72;;;9.00;100.00
12785;BME280;6456;42.680;23.260;2022-10-16T02:34:03;95332.66;;;9.16;100.00
12785;BME280;6456;42.680;23.260;2022-10-16T02:36:32;95331.28;;;9.20;100.00
12785;BME280;6456;42.680;23.260;2022-10-16T02:39:02;95342.66;;;9.27;100.00
12785;BME280;6456;42.680;23.260;2022-10-16T02:41:30;95335.81;;;9.26;100.00
12785;BME280;6456;42.680;23.260;2022-10-16T02:43:57;95348.13;;;9.26;100.00
12785;BME280;6456;42.680;23.260;2022-10-16T02:46:24;95294.81;;;8.89;100.00
12785;BME280;6456;42.680;23.260;2022-10-16T02:48:52;95225.91;;;8.45;100.00
12785;BME280;6456;42.680;23.260;2022-10-16T02:51:19;95307.94;;;8.89;100.00
12785;BME280;6456;42.680;23.260;2022-10-16T02:53:46;95355.84;;;9.13;100.00
12785;BME280;6456;42.680;23.260;2022-10-16T02:56:13;95380.81;;;9.23;100.00
12785;BME280;6456;42.680;23.260;2022-10-16T02:58:40;95259.72;;;8.55;100.00
12785;BME280;6456;42.680;23.260;2022-10-16T03:01:07;95273.81;;;8.68;100.00
12785;BME280;6456;42.680;23.260;2022-10-16T03:03:33;95303.59;;;8.82;100.00
12785;BME280;6456;42.680;23.260;2022-10-16T03:06:02;95381.44;;;9.25;100.00
12785;BME280;6456;42.680;23.260;2022-10-16T03:08:29;95298.22;;;8.69;100.00
12785;BME280;6456;42.680;23.260;2022-10-16T03:10:56;95283.31;;;8.55;100.00
12785;BME280;6456;42.680;23.260;2022-10-16T03:13:23;95323.69;;;8.89;100.00
12785;BME280;6456;42.680;23.260;2022-10-16T03:15:50;95344.94;;;8.94;100.00
12785;BME280;6456;42.680;23.260;2022-10-16T03:18:19;95346.22;;;8.98;100.00
12785;BME280;6456;42.680;23.260;2022-10-16T03:20:46;95390.50;;;9.23;100.00
12785;BME280;6456;42.680;23.260;2022-10-16T03:23:14;95393.50;;;9.20;100.00
12785;BME280;6456;42.680;23.260;2022-10-16T03:25:41;95308.63;;;8.62;100.00
12785;BME280;6456;42.680;23.260;2022-10-16T03:28:08;95317.41;;;8.55;100.00
12785;BME280;6456;42.680;23.260;2022-10-16T03:30:34;95384.97;;;8.96;100.00
12785;BME280;6456;42.680;23.260;2022-10-16T03:33:01;95370.84;;;8.83;100.00
12785;BME280;6456;42.680;23.260;2022-10-16T03:35:28;95378.06;;;8.95;100.00
12785;BME280;6456;42.680;23.260;2022-10-16T03:37:55;95378.06;;;8.95;100.00
12785;BME280;6456;42.680;23.260;2022-10-16T03:40:24;95335.31;;;8.66;100.00
12785;BME280;6456;42.680;23.260;2022-10-16T03:42:51;95366.44;;;8.83;100.00
12785;BME280;6456;42.680;23.260;2022-10-16T03:45:19;95389.47;;;9.02;100.00
12785;BME280;6456;42.680;23.260;2022-10-16T03:47:46;95374.56;;;8.88;100.00
12785;BME280;6456;42.680;23.260;2022-10-16T03:50:14;95351.50;;;8.69;100.00
12785;BME280;6456;42.680;23.260;2022-10-16T03:52:41;95306.69;;;8.35;100.00
12785;BME280;6456;42.680;23.260;2022-10-16T03:55:08;95311.56;;;8.38;100.00
12785;BME280;6456;42.680;23.260;2022-10-16T03:57:36;95299.16;;;8.32;100.00
12785;BME280;6456;42.680;23.260;2022-10-16T04:00:04;95250.34;;;7.87;100.00
12785;BME280;6456;42.680;23.260;2022-10-16T04:02:31;95381.38;;;8.68;100.00
12785;BME280;6456;42.680;23.260;2022-10-16T04:04:58;95347.56;;;8.44;100.00
12785;BME280;6456;42.680;23.260;2022-10-16T04:07:25;95373.94;;;8.57;100.00
12785;BME280;6456;42.680;23.260;2022-10-16T04:09:52;95366.00;;;8.51;100.00
12785;BME280;6456;42.680;23.260;2022-10-16T04:12:18;95377.59;;;8.56;100.00
12785;BME280;6456;42.680;23.260;2022-10-16T04:14:47;95369.72;;;8.56;100.00
12785;BME280;6456;42.680;23.260;2022-10-16T04:17:14;95352.81;;;8.44;100.00
12785;BME280;6456;42.680;23.260;2022-10-16T04:19:41;95345.72;;;8.30;100.00
12785;BME280;6456;42.680;23.260;2022-10-16T04:22:07;95299.69;;;7.98;100.00
12785;BME280;6456;42.680;23.260;2022-10-16T04:24:34;95359.38;;;8.40;100.00
12785;BME280;6456;42.680;23.260;2022-10-16T04:27:01;95370.78;;;8.47;100.00
12785;BME280;6456;42.680;23.260;2022-10-16T04:29:28;95318.22;;;8.11;100.00
12785;BME280;6456;42.680;23.260;2022-10-16T04:31:57;95357.41;;;8.27;100.00
12785;BME280;6456;42.680;23.260;2022-10-16T04:34:24;95290.47;;;7.88;100.00
12785;BME280;6456;42.680;23.260;2022-10-16T04:36:53;95401.81;;;8.58;100.00
12785;BME280;6456;42.680;23.260;2022-10-16T04:39:20;95388.63;;;8.52;100.00
12785;BME280;6456;42.680;23.260;2022-10-16T04:41:47;95376.41;;;8.44;100.00
12785;BME280;6456;42.680;23.260;2022-10-16T04:44:14;95361.13;;;8.33;100.00
12785;BME280;6456;42.680;23.260;2022-10-16T04:46:41;95413.13;;;8.59;100.00
12785;BME280;6456;42.680;23.260;2022-10-16T04:49:11;95323.44;;;7.97;100.00
12785;BME280;6456;42.680;23.260;2022-10-16T04:51:38;95396.38;;;8.45;100.00
12785;BME280;6456;42.680;23.260;2022-10-16T04:54:05;95419.34;;;8.58;100.00
12785;BME280;6456;42.680;23.260;2022-10-16T04:56:32;95359.09;;;8.20;100.00
12785;BME280;6456;42.680;23.260;2022-10-16T04:59:05;95354.75;;;8.13;100.00
12785;BME280;6456;42.680;23.260;2022-10-16T05:01:32;95412.47;;;8.42;100.00
12785;BME280;6456;42.680;23.260;2022-10-16T05:03:59;95421.63;;;8.46;100.00
12785;BME280;6456;42.680;23.260;2022-10-16T05:06:27;95336.00;;;7.87;100.00
12785;BME280;6456;42.680;23.260;2022-10-16T05:08:54;95426.69;;;8.48;100.00
12785;BME280;6456;42.680;23.260;2022-10-16T05:11:21;95351.63;;;7.95;100.00
12785;BME280;6456;42.680;23.260;2022-10-16T05:13:48;95390.19;;;8.23;100.00
12785;BME280;6456;42.680;23.260;2022-10-16T05:16:15;95431.94;;;8.48;100.00
12785;BME280;6456;42.680;23.260;2022-10-16T05:18:42;95394.56;;;8.31;100.00
12785;BME280;6456;42.680;23.260;2022-10-16T05:21:09;95446.59;;;8.57;100.00
12785;BME280;6456;42.680;23.260;2022-10-16T05:23:37;95439.63;;;8.49;100.00
12785;BME280;6456;42.680;23.260;2022-10-16T05:26:04;95436.34;;;8.47;100.00
12785;BME280;6456;42.680;23.260;2022-10-16T05:28:31;95355.81;;;8.04;100.00
12785;BME280;6456;42.680;23.260;2022-10-16T05:30:58;95448.06;;;8.59;100.00
12785;BME280;6456;42.680;23.260;2022-10-16T05:33:25;95445.59;;;8.58;100.00
12785;BME280;6456;42.680;23.260;2022-10-16T05:35:52;95409.84;;;8.27;100.00
12785;BME280;6456;42.680;23.260;2022-10-16T05:38:28;95448.69;;;8.61;100.00
12785;BME280;6456;42.680;23.260;2022-10-16T05:40:56;95387.06;;;8.28;100.00
12785;BME280;6456;42.680;23.260;2022-10-16T05:43:23;95444.59;;;8.59;100.00
12785;BME280;6456;42.680;23.260;2022-10-16T05:45:54;95463.13;;;8.72;100.00
12785;BME280;6456;42.680;23.260;2022-10-16T05:48:22;95458.56;;;8.74;100.00
12785;BME280;6456;42.680;23.260;2022-10-16T05:50:56;95438.91;;;8.55;100.00
12785;BME280;6456;42.680;23.260;2022-10-16T05:53:24;95402.09;;;8.34;100.00
12785;BME280;6456;42.680;23.260;2022-10-16T05:55:52;95426.53;;;8.49;100.00
12785;BME280;6456;42.680;23.260;2022-10-16T05:58:21;95475.63;;;8.84;100.00
12785;BME280;6456;42.680;23.260;2022-10-16T06:00:53;95385.69;;;8.32;100.00
12785;BME280;6456;42.680;23.260;2022-10-16T06:03:20;95473.66;;;8.86;100.00
12785;BME280;6456;42.680;23.260;2022-10-16T06:05:47;95478.09;;;8.86;100.00
12785;BME280;6456;42.680;23.260;2022-10-16T06:08:14;95491.28;;;8.92;100.00
12785;BME280;6456;42.680;23.260;2022-10-16T06:10:41;95480.88;;;8.84;100.00
12785;BME280;6456;42.680;23.260;2022-10-16T06:13:09;95430.41;;;8.53;100.00
12785;BME280;6456;42.680;23.260;2022-10-16T06:15:37;95493.47;;;9.03;100.00
12785;BME280;6456;42.680;23.260;2022-10-16T06:18:07;95432.13;;;8.61;100.00
12785;BME280;6456;42.680;23.260;2022-10-16T06:20:33;95493.91;;;8.92;100.00
12785;BME280;6456;42.680;23.260;2022-10-16T06:23:01;95500.88;;;9.15;100.00
12785;BME280;6456;42.680;23.260;2022-10-16T06:25:29;95415.84;;;8.65;100.00
12785;BME280;6456;42.680;23.260;2022-10-16T06:27:56;95441.25;;;8.79;100.00
12785;BME280;6456;42.680;23.260;2022-10-16T06:30:23;95421.00;;;8.59;100.00
12785;BME280;6456;42.680;23.260;2022-10-16T06:32:51;95509.94;;;9.12;100.00
12785;BME280;6456;42.680;23.260;2022-10-16T06:35:18;95411.22;;;8.53;100.00
12785;BME280;6456;42.680;23.260;2022-10-16T06:37:44;95505.22;;;9.22;100.00
12785;BME280;6456;42.680;23.260;2022-10-16T06:40:11;95452.66;;;8.86;100.00
12785;BME280;6456;42.680;23.260;2022-10-16T06:42:40;95514.81;;;9.30;100.00
12785;BME280;6456;42.680;23.260;2022-10-16T06:45:07;95498.09;;;9.16;100.00
12785;BME280;6456;42.680;23.260;2022-10-16T06:47:34;95453.19;;;8.82;100.00
12785;BME280;6456;42.680;23.260;2022-10-16T06:50:03;95521.44;;;9.26;100.00
12785;BME280;6456;42.680;23.260;2022-10-16T06:52:31;95451.56;;;8.81;100.00
12785;BME280;6456;42.680;23.260;2022-10-16T06:54:58;95537.13;;;9.34;100.00
12785;BME280;6456;42.680;23.260;2022-10-16T06:57:25;95536.75;;;9.37;100.00
12785;BME280;6456;42.680;23.260;2022-10-16T06:59:52;95502.16;;;9.19;100.00
12785;BME280;6456;42.680;23.260;2022-10-16T07:02:19;95453.56;;;8.93;100.00
12785;BME280;6456;42.680;23.260;2022-10-16T07:04:46;95545.41;;;9.52;100.00
12785;BME280;6456;42.680;23.260;2022-10-16T07:07:14;95470.22;;;9.00;100.00
12785;BME280;6456;42.680;23.260;2022-10-16T07:09:41;95456.53;;;9.05;100.00
12785;BME280;6456;42.680;23.260;2022-10-16T07:12:08;95495.63;;;9.44;100.00
12785;BME280;6456;42.680;23.260;2022-10-16T07:14:35;95526.88;;;9.75;100.00
12785;BME280;6456;42.680;23.260;2022-10-16T07:17:02;95541.63;;;9.90;100.00
12785;BME280;6456;42.680;23.260;2022-10-16T07:19:29;95467.91;;;9.41;100.00
12785;BME280;6456;42.680;23.260;2022-10-16T07:21:56;95487.41;;;9.68;100.00
12785;BME280;6456;42.680;23.260;2022-10-16T07:24:24;95549.28;;;10.06;100.00
12785;BME280;6456;42.680;23.260;2022-10-16T07:26:51;95427.06;;;9.39;100.00
12785;BME280;6456;42.680;23.260;2022-10-16T07:29:20;95548.81;;;10.17;100.00
12785;BME280;6456;42.680;23.260;2022-10-16T07:31:48;95521.81;;;10.09;100.00
12785;BME280;6456;42.680;23.260;2022-10-16T07:34:16;95550.19;;;10.35;100.00
12785;BME280;6456;42.680;23.260;2022-10-16T07:36:43;95546.44;;;10.22;100.00
12785;BME280;6456;42.680;23.260;2022-10-16T07:39:11;95480.78;;;9.93;100.00
12785;BME280;6456;42.680;23.260;2022-10-16T07:41:39;95548.28;;;10.50;100.00
12785;BME280;6456;42.680;23.260;2022-10-16T07:44:06;95561.28;;;10.51;100.00
12785;BME280;6456;42.680;23.260;2022-10-16T07:46:33;95480.66;;;10.22;100.00
12785;BME280;6456;42.680;23.260;2022-10-16T07:49:01;95553.88;;;10.61;100.00
12785;BME280;6456;42.680;23.260;2022-10-16T07:51:28;95504.50;;;10.42;100.00
12785;BME280;6456;42.680;23.260;2022-10-16T07:53:55;95552.16;;;10.75;100.00
12785;BME280;6456;42.680;23.260;2022-10-16T07:56:23;95559.91;;;10.83;100.00
12785;BME280;6456;42.680;23.260;2022-10-16T07:58:51;95555.09;;;10.86;100.00
12785;BME280;6456;42.680;23.260;2022-10-16T08:01:18;95556.66;;;10.81;100.00
12785;BME280;6456;42.680;23.260;2022-10-16T08:03:47;95561.25;;;11.00;100.00
12785;BME280;6456;42.680;23.260;2022-10-16T08:06:14;95566.22;;;11.10;100.00
12785;BME280;6456;42.680;23.260;2022-10-16T08:08:41;95561.78;;;11.17;100.00
12785;BME280;6456;42.680;23.260;2022-10-16T08:11:08;95537.03;;;11.11;100.00
12785;BME280;6456;42.680;23.260;2022-10-16T08:13:35;95564.47;;;11.23;100.00
12785;BME280;6456;42.680;23.260;2022-10-16T08:16:07;95519.75;;;11.02;100.00
12785;BME280;6456;42.680;23.260;2022-10-16T08:18:35;95504.97;;;11.08;99.80
12785;BME280;6456;42.680;23.260;2022-10-16T08:21:03;95544.69;;;11.40;99.34
12785;BME280;6456;42.680;23.260;2022-10-16T08:23:30;95532.34;;;11.41;99.49
12785;BME280;6456;42.680;23.260;2022-10-16T08:26:02;95565.31;;;11.65;97.36
12785;BME280;6456;42.680;23.260;2022-10-16T08:28:30;95571.69;;;11.77;97.89
12785;BME280;6456;42.680;23.260;2022-10-16T08:31:06;95559.75;;;11.87;96.78
12785;BME280;6456;42.680;23.260;2022-10-16T08:33:32;95561.41;;;11.95;95.80
12785;BME280;6456;42.680;23.260;2022-10-16T08:36:00;95542.91;;;11.88;93.42
12785;BME280;6456;42.680;23.260;2022-10-16T08:38:27;95554.13;;;12.10;93.21
12785;BME280;6456;42.680;23.260;2022-10-16T08:41:00;95502.50;;;11.75;91.28
12785;BME280;6456;42.680;23.260;2022-10-16T08:43:54;95554.34;;;12.15;90.29
12785;BME280;6456;42.680;23.260;2022-10-16T08:46:37;95478.78;;;11.75;89.12
12785;BME280;6456;42.680;23.260;2022-10-16T08:49:10;95532.63;;;12.13;88.82
12785;BME280;6456;42.680;23.260;2022-10-16T08:51:38;95548.47;;;12.33;89.13
12785;BME280;6456;42.680;23.260;2022-10-16T08:54:21;95546.09;;;12.51;88.14
12785;BME280;6456;42.680;23.260;2022-10-16T08:56:50;95511.53;;;12.19;86.59
12785;BME280;6456;42.680;23.260;2022-10-16T08:59:18;95561.94;;;12.64;86.80
12785;BME280;6456;42.680;23.260;2022-10-16T09:01:50;95565.81;;;12.74;86.08
12785;BME280;6456;42.680;23.260;2022-10-16T09:04:41;95536.56;;;12.56;84.00
12785;BME280;6456;42.680;23.260;2022-10-16T09:07:16;95558.09;;;12.79;82.98
12785;BME280;6456;42.680;23.260;2022-10-16T09:09:54;95497.16;;;12.48;81.21
12785;BME280;6456;42.680;23.260;2022-10-16T09:12:28;95576.19;;;13.09;81.12
12785;BME280;6456;42.680;23.260;2022-10-16T09:15:02;95556.88;;;13.15;79.15
12785;BME280;6456;42.680;23.260;2022-10-16T09:17:42;95498.94;;;12.94;78.65
12785;BME280;6456;42.680;23.260;2022-10-16T09:20:22;95510.13;;;13.02;78.10
12785;BME280;6456;42.680;23.260;2022-10-16T09:22:55;95548.31;;;13.32;76.41
12785;BME280;6456;42.680;23.260;2022-10-16T09:25:28;95552.97;;;13.43;75.87
12785;BME280;6456;42.680;23.260;2022-10-16T09:27:55;95423.81;;;12.76;73.49
12785;BME280;6456;42.680;23.260;2022-10-16T09:30:26;95556.53;;;13.69;71.53
12785;BME280;6456;42.680;23.260;2022-10-16T09:32:58;95560.56;;;13.84;72.49
12785;BME280;6456;42.680;23.260;2022-10-16T09:35:32;95566.69;;;13.85;69.72
12785;BME280;6456;42.680;23.260;2022-10-16T09:37:59;95557.91;;;13.84;67.63
12785;BME280;6456;42.680;23.260;2022-10-16T09:40:30;95503.72;;;13.49;71.59
12785;BME280;6456;42.680;23.260;2022-10-16T09:43:02;95560.06;;;14.00;70.52
12785;BME280;6456;42.680;23.260;2022-10-16T09:45:30;95513.38;;;13.81;68.29
12785;BME280;6456;42.680;23.260;2022-10-16T09:48:01;95514.56;;;13.85;68.12
12785;BME280;6456;42.680;23.260;2022-10-16T09:50:36;95550.25;;;14.14;67.24
12785;BME280;6456;42.680;23.260;2022-10-16T09:53:05;95454.50;;;13.48;65.18
12785;BME280;6456;42.680;23.260;2022-10-16T09:55:32;95542.09;;;14.15;65.10
12785;BME280;6456;42.680;23.260;2022-10-16T09:57:59;95543.25;;;14.26;64.91
12785;BME280;6456;42.680;23.260;2022-10-16T10:00:26;95482.16;;;13.96;64.85
12785;BME280;6456;42.680;23.260;2022-10-16T10:02:53;95464.09;;;13.87;64.17
12785;BME280;6456;42.680;23.260;2022-10-16T10:05:25;95541.34;;;14.46;64.05
12785;BME280;6456;42.680;23.260;2022-10-16T10:07:55;95498.47;;;14.25;62.67
12785;BME280;6456;42.680;23.260;2022-10-16T10:10:25;95477.97;;;14.13;62.35
12785;BME280;6456;42.680;23.260;2022-10-16T10:12:53;95431.94;;;13.90;58.53
12785;BME280;6456;42.680;23.260;2022-10-16T10:15:22;95529.78;;;14.65;59.19
12785;BME280;6456;42.680;23.260;2022-10-16T10:17:51;95431.03;;;14.02;60.68
12785;BME280;6456;42.680;23.260;2022-10-16T10:20:25;95533.56;;;14.76;62.62
12785;BME280;6456;42.680;23.260;2022-10-16T10:22:53;95477.13;;;14.51;61.95
12785;BME280;6456;42.680;23.260;2022-10-16T10:25:38;95476.00;;;14.65;61.58
12785;BME280;6456;42.680;23.260;2022-10-16T10:28:27;95523.50;;;15.09;61.98
12785;BME280;6456;42.680;23.260;2022-10-16T10:30:59;95511.78;;;14.99;60.83
12785;BME280;6456;42.680;23.260;2022-10-16T10:33:34;95504.38;;;15.07;60.47
12785;BME280;6456;42.680;23.260;2022-10-16T10:36:22;95485.97;;;15.12;61.57
12785;BME280;6456;42.680;23.260;2022-10-16T10:38:56;95504.59;;;15.24;60.62
12785;BME280;6456;42.680;23.260;2022-10-16T10:44:50;95487.00;;;15.29;62.47
12785;BME280;6456;42.680;23.260;2022-10-16T10:47:27;95504.69;;;15.35;59.76
12785;BME280;6456;42.680;23.260;2022-10-16T10:50:07;95492.22;;;15.36;57.26
12785;BME280;6456;42.680;23.260;2022-10-16T10:52:51;95422.72;;;14.98;54.30
12785;BME280;6456;42.680;23.260;2022-10-16T10:55:25;95451.81;;;15.22;57.85
12785;BME280;6456;42.680;23.260;2022-10-16T10:58:14;95419.75;;;15.06;53.38
12785;BME280;6456;42.680;23.260;2022-10-16T11:00:54;95488.38;;;15.57;56.77
12785;BME280;6456;42.680;23.260;2022-10-16T11:03:35;95480.69;;;15.67;55.35
12785;BME280;6456;42.680;23.260;2022-10-16T11:06:11;95439.19;;;15.36;55.92
12785;BME280;6456;42.680;23.260;2022-10-16T11:08:48;95436.56;;;15.54;55.28
12785;BME280;6456;42.680;23.260;2022-10-16T11:11:23;95455.19;;;15.66;53.91
12785;BME280;6456;42.680;23.260;2022-10-16T11:13:57;95409.38;;;15.40;55.66
12785;BME280;6456;42.680;23.260;2022-10-16T11:16:28;95389.63;;;15.36;55.35
12785;BME280;6456;42.680;23.260;2022-10-16T11:18:59;95455.28;;;15.89;52.06
12785;BME280;6456;42.680;23.260;2022-10-16T11:21:34;95365.28;;;15.28;53.90
12785;BME280;6456;42.680;23.260;2022-10-16T11:24:14;95468.41;;;16.14;53.70
12785;BME280;6456;42.680;23.260;2022-10-16T11:26:43;95468.22;;;16.27;52.55
12785;BME280;6456;42.680;23.260;2022-10-16T11:29:16;95391.31;;;15.79;52.38
12785;BME280;6456;42.680;23.260;2022-10-16T11:31:46;95452.09;;;16.28;51.64
12785;BME280;6456;42.680;23.260;2022-10-16T11:34:19;95467.09;;;16.34;55.70
12785;BME280;6456;42.680;23.260;2022-10-16T11:36:51;95443.75;;;16.25;55.71
12785;BME280;6456;42.680;23.260;2022-10-16T11:39:24;95424.34;;;16.13;53.96
12785;BME280;6456;42.680;23.260;2022-10-16T11:41:54;95412.66;;;16.02;51.88
12785;BME280;6456;42.680;23.260;2022-10-16T11:44:34;95468.31;;;16.50;51.41
12785;BME280;6456;42.680;23.260;2022-10-16T11:47:12;95474.50;;;16.44;52.75
12785;BME280;6456;42.680;23.260;2022-10-16T11:49:40;95457.19;;;16.41;50.89
12785;BME280;6456;42.680;23.260;2022-10-16T11:52:13;95471.44;;;16.58;52.88
12785;BME280;6456;42.680;23.260;2022-10-16T11:54:49;95409.00;;;16.26;48.37
12785;BME280;6456;42.680;23.260;2022-10-16T11:57:21;95401.59;;;16.17;50.04
12785;BME280;6456;42.680;23.260;2022-10-16T11:59:53;95342.09;;;15.83;50.14
12785;BME280;6456;42.680;23.260;2022-10-16T12:02:42;95412.97;;;16.35;50.71
12785;BME280;6456;42.680;23.260;2022-10-16T12:05:21;95431.47;;;16.53;49.89
12785;BME280;6456;42.680;23.260;2022-10-16T12:07:56;95366.13;;;16.11;49.09
12785;BME280;6456;42.680;23.260;2022-10-16T12:10:29;95392.50;;;16.36;47.87
12785;BME280;6456;42.680;23.260;2022-10-16T12:13:03;95421.78;;;16.59;46.73
12785;BME280;6456;42.680;23.260;2022-10-16T12:15:31;95461.19;;;16.97;45.74
12785;BME280;6456;42.680;23.260;2022-10-16T12:17:59;95356.25;;;16.30;45.61
12785;BME280;6456;42.680;23.260;2022-10-16T12:20:28;95360.97;;;16.51;45.85
12785;BME280;6456;42.680;23.260;2022-10-16T12:22:59;95407.22;;;16.85;48.22
12785;BME280;6456;42.680;23.260;2022-10-16T12:25:30;95425.72;;;16.91;50.30
12785;BME280;6456;42.680;23.260;2022-10-16T12:28:03;95462.00;;;17.09;48.68
12785;BME280;6456;42.680;23.260;2022-10-16T12:30:33;95398.00;;;16.76;48.95
12785;BME280;6456;42.680;23.260;2022-10-16T12:33:02;95439.59;;;17.05;48.92
12785;BME280;6456;42.680;23.260;2022-10-16T12:35:32;95403.66;;;16.79;50.37
12785;BME280;6456;42.680;23.260;2022-10-16T12:38:16;95431.13;;;17.19;50.46
12785;BME280;6456;42.680;23.260;2022-10-16T12:40:46;95423.16;;;17.19;49.75
12785;BME280;6456;42.680;23.260;2022-10-16T12:43:35;95451.22;;;17.39;48.16
12785;BME280;6456;42.680;23.260;2022-10-16T12:46:05;95393.47;;;16.99;48.44
12785;BME280;6456;42.680;23.260;2022-10-16T12:48:46;95445.22;;;17.43;47.91
12785;BME280;6456;42.680;23.260;2022-10-16T12:51:23;95460.13;;;17.44;44.77
12785;BME280;6456;42.680;23.260;2022-10-16T12:53:58;95399.91;;;17.15;45.46
12785;BME280;6456;42.680;23.260;2022-10-16T12:56:35;95456.88;;;17.65;46.56
12785;BME280;6456;42.680;23.260;2022-10-16T12:59:17;95445.16;;;17.66;47.85
12785;BME280;6456;42.680;23.260;2022-10-16T13:02:14;95456.72;;;17.72;48.83
12785;BME280;6456;42.680;23.260;2022-10-16T13:05:04;95470.75;;;17.67;47.64
12785;BME280;6456;42.680;23.260;2022-10-16T13:07:48;95421.28;;;17.43;47.68
12785;BME280;6456;42.680;23.260;2022-10-16T13:10:25;95466.56;;;17.71;48.67
12785;BME280;6456;42.680;23.260;2022-10-16T13:13:16;95475.13;;;17.73;48.86
12785;BME280;6456;42.680;23.260;2022-10-16T13:15:59;95462.28;;;17.70;49.44
12785;BME280;6456;42.680;23.260;2022-10-16T13:18:33;95442.56;;;17.43;47.26
12785;BME280;6456;42.680;23.260;2022-10-16T13:21:16;95426.00;;;17.41;46.11